createdAt,value
2022-09-01T00:00:22.037Z,1.20
2022-09-01T00:03:11.445Z,1.20
2022-09-01T00:05:58.558Z,1.03
2022-09-01T00:08:45.615Z,1.00
2022-09-01T00:11:33.374Z,1.03
2022-09-01T00:14:29.930Z,1.07
2022-09-01T00:17:17.493Z,1.10
2022-09-01T00:20:06.302Z,1.30
2022-09-01T00:22:53.453Z,1.13
2022-09-01T00:25:40.730Z,1.20
2022-09-01T00:28:30.348Z,1.20
2022-09-01T00:31:21.905Z,1.10
2022-09-01T00:34:08.985Z,1.10
2022-09-01T00:36:56.007Z,1.43
2022-09-01T00:39:43.118Z,1.37
2022-09-01T00:42:30.137Z,1.23
2022-09-01T00:45:17.365Z,1.40
2022-09-01T00:48:05.931Z,1.23
2022-09-01T00:50:54.711Z,1.20
2022-09-01T00:53:45.867Z,1.43
2022-09-01T00:56:34.937Z,1.20
2022-09-01T00:59:24.085Z,1.20
2022-09-01T01:02:11.405Z,1.50
2022-09-01T01:04:59.692Z,1.10
2022-09-01T01:07:47.970Z,1.57
2022-09-01T01:10:41.616Z,1.43
2022-09-01T01:13:32.208Z,1.37
2022-09-01T01:16:19.296Z,1.10
2022-09-01T01:19:28.345Z,1.23
2022-09-01T01:22:46.616Z,1.40
2022-09-01T01:25:44.986Z,1.47
2022-09-01T01:28:35.738Z,1.30
2022-09-01T01:31:24.283Z,1.20
2022-09-01T01:34:11.392Z,1.80
2022-09-01T01:36:59.996Z,1.40
2022-09-01T01:39:48.535Z,1.30
2022-09-01T01:42:35.657Z,1.30
2022-09-01T01:45:24.975Z,1.23
2022-09-01T01:48:12.796Z,1.33
2022-09-01T01:51:00.905Z,1.20
2022-09-01T01:53:52.781Z,1.43
2022-09-01T01:56:41.940Z,1.30
2022-09-01T01:59:29.760Z,1.27
2022-09-01T02:02:16.889Z,1.20
2022-09-01T02:05:04.272Z,1.50
2022-09-01T02:07:56.462Z,1.17
2022-09-01T02:10:45.775Z,1.47
2022-09-01T02:13:34.200Z,1.30
2022-09-01T02:16:21.224Z,1.50
2022-09-01T02:19:12.455Z,1.50
2022-09-01T02:22:00.370Z,1.40
2022-09-01T02:24:52.584Z,1.20
2022-09-01T02:27:39.932Z,1.60
2022-09-01T02:30:28.255Z,1.50
2022-09-01T02:33:19.350Z,1.60
2022-09-01T02:36:10.214Z,1.60
2022-09-01T02:38:57.382Z,1.20
2022-09-01T02:41:46.102Z,1.50
2022-09-01T02:44:36.253Z,1.70
2022-09-01T02:47:27.079Z,1.70
2022-09-01T02:50:17.097Z,1.40
2022-09-01T02:53:09.837Z,1.50
2022-09-01T02:55:59.042Z,1.40
2022-09-01T02:58:46.687Z,1.70
2022-09-01T03:01:33.888Z,1.40
2022-09-01T03:04:22.579Z,1.60
2022-09-01T03:07:09.697Z,1.33
2022-09-01T03:09:56.730Z,1.40
2022-09-01T03:12:43.720Z,1.50
2022-09-01T03:15:36.645Z,1.50
2022-09-01T03:18:23.622Z,1.47
2022-09-01T03:21:16.195Z,1.67
2022-09-01T03:24:04.019Z,1.87
2022-09-01T03:26:51.531Z,1.67
2022-09-01T03:29:38.518Z,1.77
2022-09-01T03:32:25.574Z,1.60
2022-09-01T03:35:13.129Z,1.50
2022-09-01T03:38:02.218Z,1.73
2022-09-01T03:41:02.179Z,1.70
2022-09-01T03:43:49.689Z,1.60
2022-09-01T03:46:38.045Z,2.07
2022-09-01T03:49:25.275Z,1.50
2022-09-01T03:52:13.518Z,1.90
2022-09-01T03:55:00.497Z,2.10
2022-09-01T03:57:47.541Z,2.17
2022-09-01T04:00:40.404Z,1.80
2022-09-01T04:03:31.929Z,2.20
2022-09-01T04:06:20.747Z,1.83
2022-09-01T04:09:08.129Z,1.77
2022-09-01T04:11:55.131Z,1.80
2022-09-01T04:14:42.328Z,1.87
2022-09-01T04:17:47.863Z,2.10
2022-09-01T04:20:47.960Z,1.97
2022-09-01T04:23:37.279Z,2.00
2022-09-01T04:26:26.902Z,1.90
2022-09-01T04:29:14.617Z,1.90
2022-09-01T04:32:09.870Z,2.30
2022-09-01T04:34:57.125Z,2.23
2022-09-01T04:37:44.210Z,2.10
2022-09-01T04:40:31.300Z,2.00
2022-09-01T04:43:18.577Z,1.97
2022-09-01T04:46:06.124Z,2.27
2022-09-01T04:48:53.540Z,2.10
2022-09-01T04:51:43.006Z,2.00
2022-09-01T04:54:30.845Z,2.07
2022-09-01T04:57:18.237Z,2.10
2022-09-01T05:00:05.692Z,2.03
2022-09-01T05:03:03.499Z,2.20
2022-09-01T05:05:50.621Z,2.30
2022-09-01T05:08:38.570Z,2.50
2022-09-01T05:11:26.006Z,2.50
2022-09-01T05:14:13.411Z,2.30
2022-09-01T05:17:01.962Z,2.30
2022-09-01T05:19:51.323Z,2.63
2022-09-01T05:22:41.011Z,2.10
2022-09-01T05:25:28.049Z,3.20
2022-09-01T05:28:19.385Z,2.60
2022-09-01T05:31:07.253Z,2.70
2022-09-01T05:33:55.666Z,2.70
2022-09-01T05:36:49.062Z,2.73
2022-09-01T05:39:38.088Z,2.17
2022-09-01T05:42:25.095Z,2.33
2022-09-01T05:45:12.269Z,2.70
2022-09-01T05:47:59.925Z,2.30
2022-09-01T05:50:49.698Z,2.70
2022-09-01T05:53:38.229Z,2.37
2022-09-01T05:56:30.961Z,2.33
2022-09-01T05:59:24.309Z,2.97
2022-09-01T06:02:12.650Z,2.23
2022-09-01T06:05:00.434Z,2.40
2022-09-01T06:07:47.401Z,2.87
2022-09-01T06:10:40.166Z,2.60
2022-09-01T06:13:27.673Z,2.70
2022-09-01T06:16:15.734Z,2.67
2022-09-01T06:19:03.787Z,2.90
2022-09-01T06:21:51.444Z,2.50
2022-09-01T06:24:43.586Z,2.57
2022-09-01T06:27:33.752Z,2.50
2022-09-01T06:30:26.533Z,2.60
2022-09-01T06:33:14.287Z,2.47
2022-09-01T06:36:04.314Z,2.47
2022-09-01T06:38:53.113Z,2.17
2022-09-01T06:41:40.130Z,2.10
2022-09-01T06:44:27.133Z,2.27
2022-09-01T06:47:15.691Z,2.53
2022-09-01T06:50:04.574Z,2.20
2022-09-01T06:56:13.694Z,1.90
2022-09-01T06:59:06.240Z,1.70
2022-09-01T07:02:01.325Z,1.90
2022-09-01T07:05:02.847Z,1.97
2022-09-01T07:08:05.275Z,2.50
2022-09-01T07:14:19.229Z,2.00
2022-09-01T07:17:27.124Z,1.60
2022-09-01T07:20:23.469Z,1.60
2022-09-01T07:23:11.723Z,1.60
2022-09-01T07:26:03.545Z,1.93
2022-09-01T07:29:01.139Z,1.70
2022-09-01T07:31:49.319Z,1.57
2022-09-01T07:34:38.806Z,1.43
2022-09-01T07:43:45.210Z,1.53
2022-09-01T07:46:40.323Z,1.60
2022-09-01T07:49:29.810Z,1.80
2022-09-01T07:52:18.153Z,1.43
2022-09-01T07:55:11.932Z,1.87
2022-09-01T07:57:59.704Z,1.70
2022-09-01T08:00:47.918Z,1.60
2022-09-01T08:03:35.459Z,1.60
2022-09-01T08:06:27.906Z,1.40
2022-09-01T08:09:32.934Z,1.60
2022-09-01T08:12:28.857Z,1.50
2022-09-01T08:18:24.653Z,1.37
2022-09-01T08:21:15.707Z,1.40
2022-09-01T08:24:03.251Z,1.30
2022-09-01T08:26:50.395Z,1.60
2022-09-01T08:29:37.437Z,1.60
2022-09-01T08:32:24.478Z,1.60
2022-09-01T08:35:12.596Z,1.40
2022-09-01T08:38:00.456Z,1.53
2022-09-01T08:40:57.414Z,1.20
2022-09-01T08:44:16.902Z,1.30
2022-09-01T08:47:07.787Z,1.63
2022-09-01T08:50:00.655Z,1.50
2022-09-01T08:53:09.004Z,1.33
2022-09-01T08:55:58.680Z,1.40
2022-09-01T08:58:46.014Z,1.67
2022-09-01T09:01:53.702Z,1.33
2022-09-01T09:04:49.297Z,1.43
2022-09-01T09:08:08.291Z,1.40
2022-09-01T09:11:00.889Z,1.23
2022-09-01T09:14:00.138Z,1.50
2022-09-01T09:16:53.860Z,1.53
2022-09-01T09:19:43.646Z,1.80
2022-09-01T09:22:31.842Z,1.40
2022-09-01T09:25:19.524Z,1.67
2022-09-01T09:28:06.796Z,1.60
2022-09-01T09:31:32.854Z,1.40
2022-09-01T09:34:33.331Z,1.50
2022-09-01T09:37:20.544Z,1.50
2022-09-01T09:40:20.903Z,1.43
2022-09-01T09:43:08.154Z,1.20
2022-09-01T09:46:33.688Z,1.10
2022-09-01T09:49:36.359Z,1.23
2022-09-01T09:52:24.492Z,1.10
2022-09-01T09:55:24.626Z,1.27
2022-09-01T09:58:12.704Z,1.10
2022-09-01T10:01:12.227Z,1.13
2022-09-01T10:04:01.808Z,1.00
2022-09-01T10:06:49.706Z,1.03
2022-09-01T10:09:38.612Z,1.20
2022-09-01T10:12:26.283Z,1.23
2022-09-01T10:15:15.176Z,1.10
2022-09-01T10:18:28.969Z,1.10
2022-09-01T10:21:22.710Z,1.10
2022-09-01T10:24:32.222Z,1.10
2022-09-01T10:27:25.897Z,1.00
2022-09-01T10:30:20.706Z,1.30
2022-09-01T10:33:15.869Z,1.03
2022-09-01T10:36:08.156Z,1.10
2022-09-01T10:39:04.385Z,1.10
2022-09-01T10:42:00.029Z,0.90
2022-09-01T10:45:02.071Z,1.20
2022-09-01T10:47:49.397Z,1.20
2022-09-01T10:50:36.939Z,0.97
2022-09-01T10:53:35.982Z,0.90
2022-09-01T10:56:52.562Z,1.00
2022-09-01T10:59:44.406Z,1.10
2022-09-01T11:02:46.685Z,1.00
2022-09-01T11:06:11.313Z,0.80
2022-09-01T11:09:04.614Z,0.80
2022-09-01T11:12:30.035Z,0.93
2022-09-01T11:15:17.192Z,0.90
2022-09-01T11:18:15.921Z,0.70
2022-09-01T11:21:33.347Z,0.73
2022-09-01T11:24:54.466Z,0.80
2022-09-01T11:27:50.554Z,0.60
2022-09-01T11:31:06.477Z,1.00
2022-09-01T11:34:05.310Z,1.00
2022-09-01T11:36:55.226Z,1.02
2022-09-01T11:39:48.622Z,0.80
2022-09-01T11:42:46.617Z,0.95
2022-09-01T11:45:45.070Z,0.90
2022-09-01T11:48:32.235Z,0.80
2022-09-01T11:51:21.871Z,0.80
2022-09-01T11:54:10.281Z,0.80
2022-09-01T11:56:59.947Z,1.00
2022-09-01T11:59:48.109Z,0.68
2022-09-01T12:02:42.343Z,0.85
2022-09-01T12:05:34.201Z,0.80
2022-09-01T12:08:24.188Z,0.80
2022-09-01T12:11:27.483Z,0.80
2022-09-01T12:14:22.347Z,0.90
2022-09-01T12:17:10.032Z,0.70
2022-09-01T12:20:17.304Z,0.80
2022-09-01T12:23:18.554Z,1.10
2022-09-01T12:26:10.562Z,0.90
2022-09-01T12:28:57.777Z,0.80
2022-09-01T12:31:48.636Z,0.70
2022-09-01T12:34:44.013Z,0.85
2022-09-01T12:37:31.310Z,1.10
2022-09-01T12:40:34.073Z,0.90
2022-09-01T12:43:33.268Z,0.80
2022-09-01T12:46:43.472Z,0.80
2022-09-01T12:49:48.011Z,0.82
2022-09-01T12:52:53.567Z,0.75
2022-09-01T12:55:48.099Z,0.95
2022-09-01T12:58:35.724Z,0.75
2022-09-01T13:01:33.546Z,0.80
2022-09-01T13:04:27.365Z,0.70
2022-09-01T13:07:14.332Z,0.85
2022-09-01T13:10:01.578Z,0.90
2022-09-01T13:12:48.997Z,0.80
2022-09-01T13:15:43.535Z,0.80
2022-09-01T13:18:31.751Z,0.80
2022-09-01T13:21:19.536Z,0.82
2022-09-01T13:24:09.734Z,0.90
2022-09-01T13:30:07.037Z,0.82
2022-09-01T13:36:42.515Z,0.73
2022-09-01T13:39:12.811Z,0.90
2022-09-01T13:41:59.877Z,0.70
2022-09-01T13:44:49.718Z,0.63
2022-09-01T13:54:02.397Z,0.80
2022-09-01T13:56:50.453Z,0.85
2022-09-01T13:59:38.666Z,0.70
2022-09-01T14:02:26.461Z,0.90
2022-09-01T14:05:13.394Z,0.70
2022-09-01T14:08:01.629Z,0.55
2022-09-01T14:10:51.217Z,0.80
2022-09-01T14:13:38.679Z,0.80
2022-09-01T14:16:25.783Z,0.82
2022-09-01T14:19:13.058Z,0.88
2022-09-01T14:22:00.434Z,0.80
2022-09-01T14:24:47.999Z,0.90
2022-09-01T14:27:35.185Z,0.80
2022-09-01T14:30:29.034Z,0.73
2022-09-01T14:33:19.906Z,0.98
2022-09-01T14:36:11.022Z,0.80
2022-09-01T14:39:01.950Z,0.90
2022-09-01T14:41:49.938Z,0.77
2022-09-01T14:44:38.351Z,0.88
2022-09-01T14:47:25.896Z,0.88
2022-09-01T14:50:15.060Z,0.70
2022-09-01T14:53:04.634Z,0.70
2022-09-01T14:55:55.630Z,0.85
2022-09-01T14:58:47.296Z,0.90
2022-09-01T15:01:35.286Z,0.88
2022-09-01T15:04:23.052Z,0.70
2022-09-01T15:07:10.312Z,0.90
2022-09-01T15:09:59.128Z,1.00
2022-09-01T15:12:46.137Z,0.90
2022-09-01T15:15:33.213Z,0.85
2022-09-01T15:18:20.400Z,0.80
2022-09-01T15:21:07.729Z,0.90
2022-09-01T15:23:55.068Z,0.98
2022-09-01T15:26:42.347Z,0.75
2022-09-01T15:29:34.368Z,0.82
2022-09-01T15:32:27.938Z,0.77
2022-09-01T15:35:16.594Z,1.00
2022-09-01T15:38:05.029Z,0.80
2022-09-01T15:40:57.785Z,0.77
2022-09-01T15:43:45.700Z,0.85
2022-09-01T15:46:33.867Z,1.00
2022-09-01T15:49:21.012Z,0.75
2022-09-01T15:52:08.073Z,0.95
2022-09-01T15:54:55.202Z,0.85
2022-09-01T15:57:42.196Z,0.80
2022-09-01T16:00:30.086Z,0.90
2022-09-01T16:03:17.545Z,0.70
2022-09-01T16:06:05.323Z,0.95
2022-09-01T16:08:54.772Z,1.10
2022-09-01T16:11:42.137Z,0.85
2022-09-01T16:14:32.188Z,0.80
2022-09-01T16:17:44.255Z,0.80
2022-09-01T16:20:39.054Z,0.80
2022-09-01T16:23:39.166Z,0.90
2022-09-01T16:26:26.177Z,0.80
2022-09-01T16:29:40.050Z,0.80
2022-09-01T16:32:33.070Z,0.80
2022-09-01T16:35:28.701Z,0.98
2022-09-01T16:38:39.445Z,0.80
2022-09-01T16:41:45.274Z,0.90
2022-09-01T16:44:41.907Z,0.95
2022-09-01T16:47:40.418Z,0.83
2022-09-01T16:50:55.401Z,0.67
2022-09-01T16:53:48.543Z,0.90
2022-09-01T16:56:59.730Z,0.87
2022-09-01T16:59:48.759Z,0.97
2022-09-01T17:02:56.693Z,1.10
2022-09-01T17:05:55.359Z,1.10
2022-09-01T17:08:52.804Z,1.20
2022-09-01T17:11:53.291Z,0.90
2022-09-01T17:14:49.911Z,0.80
2022-09-01T17:18:22.010Z,0.80
2022-09-01T17:21:15.430Z,0.90
2022-09-01T17:24:12.495Z,0.93
2022-09-01T17:27:07.913Z,1.10
2022-09-01T17:29:57.215Z,1.07
2022-09-01T17:33:17.495Z,1.20
2022-09-01T17:36:18.761Z,1.23
2022-09-01T17:39:37.869Z,0.90
2022-09-01T17:42:40.909Z,1.10
2022-09-01T17:45:56.381Z,1.00
2022-09-01T17:48:57.095Z,1.03
2022-09-01T17:52:08.132Z,0.80
2022-09-01T17:55:13.458Z,1.03
2022-09-01T17:58:19.623Z,0.90
2022-09-01T18:01:20.689Z,1.00
2022-09-01T18:04:21.674Z,1.07
2022-09-01T18:07:30.552Z,1.20
2022-09-01T18:10:53.035Z,1.10
2022-09-01T18:13:53.842Z,1.30
2022-09-01T18:17:25.954Z,1.10
2022-09-01T18:20:21.758Z,1.07
2022-09-01T18:23:12.472Z,1.07
2022-09-01T18:26:17.513Z,0.80
2022-09-01T18:29:05.736Z,0.90
2022-09-01T18:32:18.010Z,1.30
2022-09-01T18:35:31.324Z,1.00
2022-09-01T18:38:28.515Z,1.03
2022-09-01T18:41:35.680Z,0.90
2022-09-01T18:44:46.609Z,0.90
2022-09-01T18:47:37.056Z,1.40
2022-09-01T18:50:42.570Z,1.07
2022-09-01T18:53:48.048Z,1.00
2022-09-01T18:56:46.110Z,1.07
2022-09-01T18:59:36.956Z,1.07
2022-09-01T19:02:52.273Z,0.93
2022-09-01T19:05:57.455Z,1.23
2022-09-01T19:09:00.177Z,0.80
2022-09-01T19:12:10.604Z,1.10
2022-09-01T19:15:19.745Z,1.67
2022-09-01T19:18:15.571Z,1.97
2022-09-01T19:21:08.374Z,1.87
2022-09-01T19:24:13.180Z,1.43
2022-09-01T19:27:13.273Z,1.60
2022-09-01T19:30:04.762Z,2.00
2022-09-01T19:32:52.484Z,1.27
2022-09-01T19:35:42.604Z,1.07
2022-09-01T19:38:30.525Z,1.40
2022-09-01T19:41:36.151Z,1.33
2022-09-01T19:44:54.093Z,0.90
2022-09-01T19:47:56.323Z,0.93
2022-09-01T19:50:53.189Z,0.90
2022-09-01T19:53:48.788Z,1.10
2022-09-01T19:57:17.929Z,1.00
2022-09-01T20:00:41.971Z,0.70
2022-09-01T20:03:53.921Z,0.83
2022-09-01T20:06:51.276Z,0.97
2022-09-01T20:09:48.663Z,1.07
2022-09-01T20:12:43.444Z,1.17
2022-09-01T20:15:57.027Z,0.97
2022-09-01T20:18:56.199Z,0.80
2022-09-01T20:21:46.536Z,0.90
2022-09-01T20:24:40.035Z,0.87
2022-09-01T20:27:34.810Z,0.90
2022-09-01T20:30:37.423Z,0.93
2022-09-01T20:33:40.804Z,0.83
2022-09-01T20:36:37.698Z,0.90
2022-09-01T20:40:00.853Z,1.00
2022-09-01T20:43:24.553Z,0.80
2022-09-01T20:46:11.674Z,0.83
2022-09-01T20:49:02.650Z,0.90
2022-09-01T20:52:42.662Z,1.20
2022-09-01T20:55:37.606Z,1.10
2022-09-01T20:58:25.024Z,0.70
2022-09-01T21:01:18.110Z,0.80
2022-09-01T21:04:36.427Z,1.00
2022-09-01T21:07:31.461Z,0.93
2022-09-01T21:10:35.535Z,1.07
2022-09-01T21:13:58.969Z,0.80
2022-09-01T21:16:57.626Z,0.90
2022-09-01T21:20:08.390Z,0.90
2022-09-01T21:22:55.751Z,0.90
2022-09-01T21:25:44.349Z,0.80
2022-09-01T21:28:31.577Z,0.87
2022-09-01T21:31:20.205Z,0.90
2022-09-01T21:34:07.269Z,0.80
2022-09-01T21:36:55.563Z,0.90
2022-09-01T21:39:43.605Z,0.77
2022-09-01T21:42:34.814Z,0.90
2022-09-01T21:45:23.059Z,1.00
2022-09-01T21:48:10.602Z,1.07
2022-09-01T21:50:57.713Z,0.93
2022-09-01T21:53:44.754Z,0.80
2022-09-01T21:56:31.827Z,0.90
2022-09-01T21:59:19.646Z,1.03
2022-09-01T22:02:07.803Z,0.90
2022-09-01T22:04:55.070Z,1.00
2022-09-01T22:07:45.439Z,1.00
2022-09-01T22:10:32.587Z,1.10
2022-09-01T22:13:23.470Z,1.00
2022-09-01T22:16:16.768Z,0.80
2022-09-01T22:19:04.893Z,0.90
2022-09-01T22:21:52.545Z,0.93
2022-09-01T22:24:39.507Z,1.00
2022-09-01T22:27:26.566Z,0.90
2022-09-01T22:30:14.281Z,1.00
2022-09-01T22:33:02.727Z,1.00
2022-09-01T22:35:53.189Z,1.17
2022-09-01T22:38:40.191Z,0.90
2022-09-01T22:41:29.446Z,1.00
2022-09-01T22:44:16.461Z,0.97
2022-09-01T22:47:03.589Z,1.17
2022-09-01T22:49:50.578Z,1.10
2022-09-01T22:52:38.513Z,1.20
2022-09-01T22:55:26.676Z,1.00
2022-09-01T22:58:15.252Z,1.23
2022-09-01T23:01:02.914Z,1.07
2022-09-01T23:03:50.634Z,0.87
2022-09-01T23:06:44.930Z,1.07
2022-09-01T23:09:32.067Z,1.03
2022-09-01T23:12:19.037Z,1.30
2022-09-01T23:15:06.653Z,1.13
2022-09-01T23:17:53.663Z,1.43
2022-09-01T23:20:40.685Z,1.10
2022-09-01T23:23:27.840Z,1.10
2022-09-01T23:26:15.210Z,1.20
2022-09-01T23:29:04.120Z,1.10
2022-09-01T23:31:51.609Z,1.00
2022-09-01T23:34:39.128Z,1.10
2022-09-01T23:37:27.047Z,1.10
2022-09-01T23:40:14.351Z,1.10
2022-09-01T23:43:02.002Z,0.93
2022-09-01T23:45:52.151Z,1.20
2022-09-01T23:48:39.147Z,1.10
2022-09-01T23:51:26.254Z,1.00
2022-09-01T23:54:13.737Z,1.20
2022-09-01T23:57:01.093Z,0.90
2022-09-01T23:59:48.773Z,1.03
